createdAt,value
2022-09-10T00:01:28.936Z,6.50
2022-09-10T00:03:56.468Z,6.78
2022-09-10T00:06:27.912Z,6.68
2022-09-10T00:08:59.010Z,6.00
2022-09-10T00:11:31.860Z,5.93
2022-09-10T00:14:04.191Z,6.13
2022-09-10T00:16:32.349Z,6.13
2022-09-10T00:19:01.197Z,6.47
2022-09-10T00:21:29.791Z,6.70
2022-09-10T00:23:57.518Z,6.30
2022-09-10T00:26:28.991Z,6.68
2022-09-10T00:28:59.458Z,5.82
2022-09-10T00:31:27.819Z,5.68
2022-09-10T00:33:54.735Z,5.63
2022-09-10T00:36:28.818Z,5.22
2022-09-10T00:38:59.741Z,5.82
2022-09-10T00:41:27.199Z,5.80
2022-09-10T00:43:58.232Z,5.78
2022-09-10T00:46:50.086Z,6.03
2022-09-10T00:49:26.367Z,5.75
2022-09-10T00:51:54.057Z,5.50
2022-09-10T00:54:25.284Z,5.82
2022-09-10T00:56:57.060Z,5.97
2022-09-10T00:59:26.903Z,5.97
2022-09-10T01:01:55.524Z,6.03
2022-09-10T01:04:22.820Z,5.80
2022-09-10T01:06:53.484Z,6.53
2022-09-10T01:09:23.720Z,6.22
2022-09-10T01:12:24.619Z,6.90
2022-09-10T01:15:30.540Z,7.07
2022-09-10T01:18:41.750Z,6.28
2022-09-10T01:21:40.252Z,8.07
2022-09-10T01:24:32.933Z,7.35
2022-09-10T01:27:31.972Z,7.28
2022-09-10T01:30:07.496Z,7.65
2022-09-10T01:32:54.286Z,7.70
2022-09-10T01:35:40.329Z,7.38
2022-09-10T01:38:36.532Z,7.72
2022-09-10T01:41:05.755Z,8.57
2022-09-10T01:43:37.803Z,7.90
2022-09-10T01:46:51.880Z,7.65
2022-09-10T01:49:44.155Z,7.90
2022-09-10T01:52:39.030Z,8.45
2022-09-10T01:55:32.211Z,8.18
2022-09-10T01:58:19.948Z,7.53
2022-09-10T02:00:59.780Z,7.15
2022-09-10T02:03:28.655Z,7.57
2022-09-10T02:05:59.033Z,8.10
2022-09-10T02:08:35.188Z,7.80
2022-09-10T02:11:08.056Z,8.27
2022-09-10T02:13:38.750Z,9.30
2022-09-10T02:16:26.185Z,9.45
2022-09-10T02:18:53.237Z,9.50
2022-09-10T02:21:20.072Z,10.27
2022-09-10T02:23:55.047Z,10.75
2022-09-10T02:26:22.682Z,11.38
2022-09-10T02:28:50.348Z,12.18
2022-09-10T02:31:18.597Z,12.50
2022-09-10T02:33:45.573Z,12.52
2022-09-10T02:36:12.467Z,12.48
2022-09-10T02:38:39.328Z,13.15
2022-09-10T02:41:06.343Z,12.75
2022-09-10T02:43:37.987Z,13.75
2022-09-10T02:46:07.236Z,13.68
2022-09-10T02:48:35.149Z,13.73
2022-09-10T02:51:02.693Z,14.30
2022-09-10T02:53:31.523Z,14.52
2022-09-10T02:56:03.035Z,14.05
2022-09-10T02:58:34.014Z,14.65
2022-09-10T03:01:14.141Z,14.55
2022-09-10T03:03:42.643Z,13.88
2022-09-10T03:06:09.906Z,13.13
2022-09-10T03:08:37.051Z,13.63
2022-09-10T03:11:04.788Z,13.88
2022-09-10T03:13:34.684Z,13.93
2022-09-10T03:16:03.909Z,15.15
2022-09-10T03:18:35.131Z,14.18
2022-09-10T03:21:20.903Z,14.60
2022-09-10T03:23:52.540Z,14.38
2022-09-10T03:26:25.332Z,14.68
2022-09-10T03:28:53.434Z,15.50
2022-09-10T03:31:22.537Z,14.63
2022-09-10T03:33:51.000Z,14.32
2022-09-10T03:36:18.168Z,14.93
2022-09-10T03:38:47.386Z,15.10
2022-09-10T03:41:14.412Z,15.48
2022-09-10T03:43:41.228Z,15.10
2022-09-10T03:46:11.829Z,15.68
2022-09-10T03:48:40.164Z,16.83
2022-09-10T03:51:10.687Z,15.10
2022-09-10T03:53:38.546Z,15.02
2022-09-10T03:56:06.806Z,15.93
2022-09-10T03:58:35.714Z,15.70
2022-09-10T04:01:03.785Z,15.52
2022-09-10T04:03:32.930Z,14.48
2022-09-10T04:05:59.660Z,15.80
2022-09-10T04:08:26.430Z,15.05
2022-09-10T04:10:54.588Z,14.60
2022-09-10T04:13:22.252Z,15.00
2022-09-10T04:15:49.106Z,14.25
2022-09-10T04:18:16.028Z,14.75
2022-09-10T04:20:47.954Z,14.70
2022-09-10T04:23:16.324Z,15.02
2022-09-10T04:25:43.896Z,15.60
2022-09-10T04:28:11.533Z,15.15
2022-09-10T04:30:40.177Z,14.65
2022-09-10T04:33:07.672Z,14.55
2022-09-10T04:35:34.996Z,14.38
2022-09-10T04:38:04.515Z,14.05
2022-09-10T04:40:31.537Z,13.85
2022-09-10T04:42:58.395Z,13.88
2022-09-10T04:45:25.780Z,14.07
2022-09-10T04:47:54.170Z,13.85
2022-09-10T04:50:22.059Z,13.52
2022-09-10T04:53:11.500Z,12.77
2022-09-10T04:55:42.845Z,13.25
2022-09-10T04:58:10.722Z,13.18
2022-09-10T05:00:39.447Z,12.88
2022-09-10T05:03:07.764Z,11.85
2022-09-10T05:05:35.380Z,12.68
2022-09-10T05:08:05.624Z,11.85
2022-09-10T05:10:36.109Z,12.75
2022-09-10T05:13:05.534Z,11.30
2022-09-10T05:15:32.361Z,12.13
2022-09-10T05:17:59.308Z,11.55
2022-09-10T05:20:27.547Z,11.68
2022-09-10T05:22:56.114Z,11.35
2022-09-10T05:25:24.375Z,11.77
2022-09-10T05:27:51.311Z,11.60
2022-09-10T05:30:20.244Z,11.57
2022-09-10T05:32:47.584Z,11.35
2022-09-10T05:35:15.331Z,11.88
2022-09-10T05:37:45.587Z,10.88
2022-09-10T05:40:14.693Z,11.85
2022-09-10T05:42:42.251Z,12.13
2022-09-10T05:45:10.410Z,11.75
2022-09-10T05:47:37.869Z,11.82
2022-09-10T05:50:06.991Z,11.50
2022-09-10T05:52:34.449Z,11.65
2022-09-10T05:55:05.666Z,11.85
2022-09-10T05:57:33.131Z,12.07
2022-09-10T06:00:01.488Z,12.80
2022-09-10T06:02:29.418Z,12.35
2022-09-10T06:04:56.917Z,12.43
2022-09-10T06:07:23.767Z,11.65
2022-09-10T06:09:51.754Z,13.07
2022-09-10T06:12:34.158Z,12.80
2022-09-10T06:15:03.536Z,13.70
2022-09-10T06:17:30.396Z,13.23
2022-09-10T06:19:57.931Z,12.40
2022-09-10T06:22:24.980Z,13.25
2022-09-10T06:24:53.715Z,13.10
2022-09-10T06:27:22.990Z,13.88
2022-09-10T06:29:51.197Z,13.57
2022-09-10T06:32:18.549Z,13.98
2022-09-10T06:34:47.457Z,13.90
2022-09-10T06:37:14.478Z,13.27
2022-09-10T06:39:41.775Z,13.77
2022-09-10T06:42:08.632Z,13.75
2022-09-10T06:45:08.322Z,13.00
2022-09-10T06:48:37.587Z,13.27
2022-09-10T06:50:58.247Z,12.90
2022-09-10T06:53:33.269Z,13.40
2022-09-10T06:56:03.158Z,13.27
2022-09-10T06:58:36.814Z,13.38
2022-09-10T07:01:19.701Z,13.20
2022-09-10T07:04:01.602Z,12.55
2022-09-10T07:06:35.047Z,12.23
2022-09-10T07:09:14.922Z,12.50
2022-09-10T07:11:57.383Z,12.27
2022-09-10T07:14:24.524Z,12.32
2022-09-10T07:16:53.272Z,12.52
2022-09-10T07:19:22.925Z,11.70
2022-09-10T07:21:50.537Z,12.55
2022-09-10T07:24:17.394Z,11.73
2022-09-10T07:27:06.742Z,11.82
2022-09-10T07:29:35.506Z,11.70
2022-09-10T07:32:04.309Z,11.38
2022-09-10T07:34:31.479Z,11.50
2022-09-10T07:36:58.498Z,11.00
2022-09-10T07:39:26.078Z,10.65
2022-09-10T07:41:53.944Z,10.00
2022-09-10T07:44:24.561Z,10.20
2022-09-10T07:46:52.859Z,10.63
2022-09-10T07:49:20.674Z,9.75
2022-09-10T07:51:57.716Z,8.70
2022-09-10T07:54:28.589Z,8.13
2022-09-10T07:56:56.975Z,8.23
2022-09-10T07:59:23.919Z,8.55
2022-09-10T08:01:55.117Z,8.43
2022-09-10T08:04:23.446Z,7.82
2022-09-10T08:06:51.896Z,8.73
2022-09-10T08:09:19.339Z,8.65
2022-09-10T08:11:51.683Z,8.07
2022-09-10T08:14:21.056Z,8.32
2022-09-10T08:16:52.473Z,7.72
2022-09-10T08:19:19.988Z,7.93
2022-09-10T08:21:47.600Z,7.65
2022-09-10T08:24:19.427Z,8.35
2022-09-10T08:26:49.736Z,8.93
2022-09-10T08:29:17.724Z,8.23
2022-09-10T08:31:44.993Z,8.70
2022-09-10T08:34:18.211Z,8.63
2022-09-10T08:36:51.021Z,8.88
2022-09-10T08:39:17.765Z,8.50
2022-09-10T08:41:53.883Z,8.52
2022-09-10T08:44:49.885Z,8.90
2022-09-10T08:47:50.290Z,9.05
2022-09-10T08:50:26.927Z,8.85
2022-09-10T08:53:09.364Z,8.75
2022-09-10T08:55:41.304Z,8.18
2022-09-10T08:58:25.173Z,8.32
2022-09-10T09:00:58.721Z,8.18
2022-09-10T09:03:45.328Z,8.25
2022-09-10T09:06:31.835Z,8.88
2022-09-10T09:09:00.932Z,9.82
2022-09-10T09:11:37.772Z,9.02
2022-09-10T09:14:23.172Z,9.13
2022-09-10T09:17:19.963Z,8.07
2022-09-10T09:20:05.859Z,6.45
2022-09-10T09:23:17.527Z,6.03
2022-09-10T09:26:10.796Z,4.70
2022-09-10T09:28:52.542Z,4.43
2022-09-10T09:31:27.036Z,4.28
2022-09-10T09:34:04.863Z,4.10
2022-09-10T09:36:45.584Z,3.83
2022-09-10T09:39:36.003Z,2.17
2022-09-10T09:42:28.884Z,2.63
2022-09-10T09:45:16.959Z,2.53
2022-09-10T09:47:49.999Z,2.45
2022-09-10T09:50:20.560Z,2.10
2022-09-10T09:52:54.456Z,2.17
2022-09-10T09:55:33.456Z,1.70
2022-09-10T09:58:26.385Z,1.25
2022-09-10T10:01:05.584Z,1.27
2022-09-10T10:03:52.315Z,1.23
2022-09-10T10:06:24.696Z,2.15
2022-09-10T10:09:20.345Z,2.58
2022-09-10T10:11:53.582Z,4.60
2022-09-10T10:14:20.265Z,4.35
2022-09-10T10:16:49.189Z,3.60
2022-09-10T10:19:34.973Z,3.10
2022-09-10T10:22:22.538Z,3.72
2022-09-10T10:24:52.525Z,4.78
2022-09-10T10:27:36.704Z,5.05
2022-09-10T10:30:16.486Z,5.85
2022-09-10T10:32:57.907Z,8.10
2022-09-10T10:35:52.269Z,8.25
2022-09-10T10:38:31.223Z,8.32
2022-09-10T10:41:12.927Z,8.32
2022-09-10T10:44:03.845Z,8.07
2022-09-10T10:47:13.620Z,8.45
2022-09-10T10:50:36.507Z,6.80
2022-09-10T10:53:22.267Z,7.88
2022-09-10T10:56:05.100Z,7.45
2022-09-10T10:59:14.655Z,7.18
2022-09-10T11:01:55.738Z,5.57
2022-09-10T11:04:46.587Z,5.95
2022-09-10T11:07:25.515Z,6.03
2022-09-10T11:10:20.421Z,5.07
2022-09-10T11:13:13.393Z,4.38
2022-09-10T11:15:52.267Z,5.38
2022-09-10T11:18:31.558Z,4.40
2022-09-10T11:21:34.565Z,4.05
2022-09-10T11:24:08.665Z,3.03
2022-09-10T11:26:47.077Z,3.00
2022-09-10T11:30:10.180Z,2.80
2022-09-10T11:33:04.050Z,2.40
2022-09-10T11:36:11.523Z,1.88
2022-09-10T11:38:58.428Z,2.10
2022-09-10T11:41:32.575Z,1.65
2022-09-10T11:44:37.656Z,2.67
2022-09-10T11:47:27.724Z,2.30
2022-09-10T11:50:36.240Z,2.60
2022-09-10T11:53:07.262Z,2.25
2022-09-10T11:56:23.014Z,2.47
2022-09-10T11:59:27.013Z,2.55
2022-09-10T12:02:38.262Z,2.60
2022-09-10T12:05:23.447Z,2.80
2022-09-10T12:08:14.919Z,2.30
2022-09-10T12:11:08.749Z,2.78
2022-09-10T12:13:39.471Z,2.80
2022-09-10T12:16:38.312Z,3.03
2022-09-10T12:19:27.058Z,3.08
2022-09-10T12:22:01.957Z,3.45
2022-09-10T12:24:37.622Z,3.17
2022-09-10T12:27:06.964Z,3.80
2022-09-10T12:29:41.215Z,3.30
2022-09-10T12:32:07.899Z,3.30
2022-09-10T12:34:36.688Z,4.40
2022-09-10T12:37:07.784Z,4.10
2022-09-10T12:39:34.552Z,3.85
2022-09-10T12:42:23.930Z,4.70
2022-09-10T12:44:50.738Z,4.97
2022-09-10T12:47:17.368Z,4.43
2022-09-10T12:50:03.967Z,4.20
2022-09-10T12:52:51.442Z,5.55
2022-09-10T12:55:40.938Z,6.03
2022-09-10T12:59:01.975Z,5.32
2022-09-10T13:01:43.036Z,3.70
2022-09-10T13:04:37.583Z,3.78
2022-09-10T13:07:21.175Z,3.15
2022-09-10T13:10:05.276Z,3.17
2022-09-10T13:12:37.485Z,3.00
2022-09-10T13:15:05.966Z,3.53
2022-09-10T13:17:40.720Z,3.10
2022-09-10T13:20:30.186Z,3.28
2022-09-10T13:23:11.035Z,2.75
2022-09-10T13:25:41.332Z,2.83
2022-09-10T13:28:40.846Z,2.92
2022-09-10T13:31:10.910Z,2.75
2022-09-10T13:34:15.527Z,3.03
2022-09-10T13:37:24.763Z,2.72
2022-09-10T13:40:10.394Z,2.00
2022-09-10T13:43:06.514Z,1.95
2022-09-10T13:45:51.919Z,1.50
2022-09-10T13:48:28.102Z,2.17
2022-09-10T13:51:24.036Z,1.90
2022-09-10T13:53:53.312Z,1.70
2022-09-10T13:56:26.465Z,1.90
2022-09-10T13:59:03.187Z,1.60
2022-09-10T14:01:54.701Z,2.35
2022-09-10T14:04:26.404Z,2.20
2022-09-10T14:07:28.395Z,1.90
2022-09-10T14:10:06.959Z,2.30
2022-09-10T14:12:35.874Z,1.92
2022-09-10T14:15:06.322Z,2.03
2022-09-10T14:17:54.378Z,1.50
2022-09-10T14:20:27.322Z,1.58
2022-09-10T14:23:05.630Z,1.45
2022-09-10T14:25:35.141Z,1.65
2022-09-10T14:28:22.387Z,1.80
2022-09-10T14:30:51.213Z,1.92
2022-09-10T14:33:29.264Z,1.50
2022-09-10T14:35:58.908Z,1.85
2022-09-10T14:38:37.051Z,1.55
2022-09-10T14:41:22.026Z,1.50
2022-09-10T14:43:50.319Z,1.70
2022-09-10T14:47:12.699Z,1.80
2022-09-10T14:49:43.523Z,1.65
2022-09-10T14:52:11.639Z,1.60
2022-09-10T14:54:38.503Z,1.50
2022-09-10T14:57:15.724Z,1.45
2022-09-10T14:59:46.349Z,1.40
2022-09-10T15:02:28.844Z,1.50
2022-09-10T15:04:56.487Z,1.50
2022-09-10T15:07:27.404Z,1.23
2022-09-10T15:09:54.997Z,1.58
2022-09-10T15:12:31.763Z,1.67
2022-09-10T15:14:58.885Z,1.60
2022-09-10T15:17:26.932Z,1.40
2022-09-10T15:19:55.169Z,1.88
2022-09-10T15:22:30.374Z,2.40
2022-09-10T15:25:10.479Z,2.13
2022-09-10T15:27:37.739Z,1.90
2022-09-10T15:30:05.808Z,2.47
2022-09-10T15:32:32.656Z,2.20
2022-09-10T15:34:59.685Z,2.25
2022-09-10T15:37:26.968Z,1.80
2022-09-10T15:39:54.518Z,2.13
2022-09-10T15:42:21.491Z,2.47
2022-09-10T15:44:48.216Z,2.28
2022-09-10T15:47:14.919Z,2.15
2022-09-10T15:49:41.666Z,1.98
2022-09-10T15:52:09.342Z,1.65
2022-09-10T15:54:36.092Z,1.85
2022-09-10T15:57:02.909Z,1.88
2022-09-10T15:59:29.846Z,1.88
2022-09-10T16:01:56.667Z,1.80
2022-09-10T16:04:23.473Z,1.77
2022-09-10T16:06:50.220Z,2.00
2022-09-10T16:09:17.193Z,2.00
2022-09-10T16:11:44.432Z,1.95
2022-09-10T16:14:14.640Z,1.90
2022-09-10T16:16:41.548Z,1.90
2022-09-10T16:19:12.328Z,1.85
2022-09-10T16:21:39.253Z,1.65
2022-09-10T16:24:06.816Z,2.03
2022-09-10T16:26:39.138Z,2.58
2022-09-10T16:29:15.039Z,1.70
2022-09-10T16:31:43.363Z,2.00
2022-09-10T16:34:13.476Z,2.10
2022-09-10T16:36:40.399Z,1.70
2022-09-10T16:39:12.434Z,2.00
2022-09-10T16:41:42.730Z,2.20
2022-09-10T16:44:11.503Z,1.88
2022-09-10T16:46:38.661Z,2.17
2022-09-10T16:49:08.488Z,2.30
2022-09-10T16:51:36.030Z,2.70
2022-09-10T16:54:05.953Z,2.15
2022-09-10T16:56:42.676Z,2.92
2022-09-10T16:59:16.185Z,2.38
2022-09-10T17:01:45.032Z,2.67
2022-09-10T17:04:21.356Z,2.92
2022-09-10T17:06:51.032Z,2.80
2022-09-10T17:09:18.080Z,2.70
2022-09-10T17:11:44.912Z,2.40
2022-09-10T17:14:12.320Z,2.83
2022-09-10T17:16:41.802Z,2.30
2022-09-10T17:19:15.619Z,2.47
2022-09-10T17:21:55.052Z,2.40
2022-09-10T17:24:26.712Z,2.47
2022-09-10T17:26:55.205Z,2.47
2022-09-10T17:29:25.515Z,2.50
2022-09-10T17:31:52.759Z,2.67
2022-09-10T17:34:21.392Z,2.67
2022-09-10T17:36:49.054Z,2.63
2022-09-10T17:39:17.317Z,3.20
2022-09-10T17:41:45.102Z,2.67
2022-09-10T17:44:13.299Z,3.10
2022-09-10T17:46:41.326Z,3.10
2022-09-10T17:49:09.570Z,3.08
2022-09-10T17:51:37.289Z,3.03
2022-09-10T17:54:04.234Z,3.63
2022-09-10T17:56:31.476Z,3.67
2022-09-10T17:59:01.861Z,3.20
2022-09-10T18:01:32.270Z,3.20
2022-09-10T18:03:59.515Z,3.00
2022-09-10T18:06:28.942Z,3.08
2022-09-10T18:09:00.574Z,3.08
2022-09-10T18:11:32.124Z,3.20
2022-09-10T18:13:59.712Z,3.33
2022-09-10T18:16:31.035Z,2.95
2022-09-10T18:19:11.498Z,2.97
2022-09-10T18:21:42.315Z,2.83
2022-09-10T18:24:17.036Z,3.20
2022-09-10T18:26:46.930Z,3.13
2022-09-10T18:29:23.936Z,3.38
2022-09-10T18:31:55.674Z,3.17
2022-09-10T18:34:27.524Z,3.17
2022-09-10T18:36:58.232Z,3.40
2022-09-10T18:39:28.515Z,2.80
2022-09-10T18:41:56.056Z,3.60
2022-09-10T18:44:27.651Z,3.72
2022-09-10T18:46:55.936Z,3.60
2022-09-10T18:49:25.830Z,4.07
2022-09-10T18:51:55.183Z,4.18
2022-09-10T18:54:24.608Z,3.85
2022-09-10T18:56:53.255Z,4.30
2022-09-10T18:59:23.091Z,4.50
2022-09-10T19:01:53.049Z,4.90
2022-09-10T19:04:26.364Z,4.70
2022-09-10T19:06:54.239Z,4.32
2022-09-10T19:09:28.408Z,4.60
2022-09-10T19:11:58.364Z,3.80
2022-09-10T19:14:29.824Z,4.10
2022-09-10T19:16:58.548Z,4.75
2022-09-10T19:19:31.773Z,4.68
2022-09-10T19:22:06.982Z,4.57
2022-09-10T19:24:54.003Z,4.85
2022-09-10T19:27:22.407Z,5.35
2022-09-10T19:29:50.108Z,5.65
2022-09-10T19:32:19.505Z,5.38
2022-09-10T19:34:49.488Z,6.00
2022-09-10T19:37:17.043Z,5.90
2022-09-10T19:39:44.504Z,5.40
2022-09-10T19:42:12.401Z,5.78
2022-09-10T19:44:39.232Z,5.90
2022-09-10T19:47:05.996Z,5.82
2022-09-10T19:49:34.026Z,6.03
2022-09-10T19:52:01.406Z,6.57
2022-09-10T19:54:29.708Z,6.57
2022-09-10T19:56:56.467Z,6.43
2022-09-10T19:59:23.317Z,5.90
2022-09-10T20:01:50.094Z,6.18
2022-09-10T20:04:16.928Z,5.72
2022-09-10T20:06:45.804Z,6.38
2022-09-10T20:09:12.817Z,5.80
2022-09-10T20:11:39.639Z,5.93
2022-09-10T20:14:10.642Z,6.43
2022-09-10T20:16:41.591Z,6.10
2022-09-10T20:19:11.005Z,6.47
2022-09-10T20:21:38.848Z,5.80
2022-09-10T20:24:08.796Z,6.43
2022-09-10T20:26:38.172Z,6.28
2022-09-10T20:29:11.993Z,6.40
2022-09-10T20:31:41.089Z,6.72
2022-09-10T20:34:13.195Z,6.75
2022-09-10T20:36:43.675Z,8.05
2022-09-10T20:39:14.404Z,8.10
2022-09-10T20:41:42.517Z,7.78
2022-09-10T20:44:13.949Z,8.85
2022-09-10T20:46:41.484Z,7.80
2022-09-10T20:49:11.386Z,7.43
2022-09-10T20:51:40.423Z,7.15
2022-09-10T20:54:14.633Z,7.38
2022-09-10T20:56:42.126Z,7.40
2022-09-10T20:59:12.092Z,7.38
2022-09-10T21:01:39.076Z,7.25
2022-09-10T21:04:05.988Z,7.03
2022-09-10T21:06:34.537Z,7.53
2022-09-10T21:09:02.536Z,6.93
2022-09-10T21:11:32.594Z,7.55
2022-09-10T21:14:02.209Z,7.30
2022-09-10T21:16:32.111Z,7.45
2022-09-10T21:19:02.808Z,8.40
2022-09-10T21:21:33.900Z,8.95
2022-09-10T21:24:04.729Z,9.55
2022-09-10T21:26:39.030Z,8.45
2022-09-10T21:29:11.898Z,7.95
2022-09-10T21:31:39.107Z,7.65
2022-09-10T21:34:05.967Z,7.82
2022-09-10T21:36:36.644Z,8.18
2022-09-10T21:39:10.856Z,9.00
2022-09-10T21:41:44.552Z,8.85
2022-09-10T21:44:14.799Z,8.52
2022-09-10T21:46:43.369Z,8.35
2022-09-10T21:49:10.990Z,9.13
2022-09-10T21:51:38.058Z,9.18
2022-09-10T21:54:05.083Z,8.90
2022-09-10T21:56:32.383Z,8.85
2022-09-10T21:59:00.919Z,8.63
2022-09-10T22:01:32.179Z,8.73
2022-09-10T22:04:00.918Z,9.55
2022-09-10T22:06:31.675Z,10.52
2022-09-10T22:09:01.971Z,9.63
2022-09-10T22:11:32.411Z,10.48
2022-09-10T22:14:06.357Z,9.20
2022-09-10T22:16:35.373Z,10.45
2022-09-10T22:19:07.751Z,9.88
2022-09-10T22:21:38.048Z,10.93
2022-09-10T22:24:06.247Z,10.75
2022-09-10T22:26:33.859Z,10.88
2022-09-10T22:29:02.475Z,10.43
2022-09-10T22:31:34.570Z,10.48
2022-09-10T22:34:08.383Z,9.85
2022-09-10T22:36:38.324Z,9.70
2022-09-10T22:39:11.751Z,9.48
2022-09-10T22:41:39.615Z,9.80
2022-09-10T22:44:07.562Z,10.93
2022-09-10T22:46:36.219Z,9.65
2022-09-10T22:49:04.364Z,9.98
2022-09-10T22:51:36.351Z,10.05
2022-09-10T22:54:05.378Z,8.80
2022-09-10T22:56:35.668Z,9.43
2022-09-10T22:59:03.716Z,9.27
2022-09-10T23:01:35.824Z,9.10
2022-09-10T23:04:04.871Z,9.02
2022-09-10T23:06:35.156Z,9.25
2022-09-10T23:09:06.843Z,8.27
2022-09-10T23:11:36.251Z,8.98
2022-09-10T23:14:12.935Z,8.73
2022-09-10T23:16:43.379Z,9.32
2022-09-10T23:19:14.336Z,8.88
2022-09-10T23:21:45.298Z,9.70
2022-09-10T23:24:15.844Z,9.63
2022-09-10T23:26:44.098Z,9.27
2022-09-10T23:29:12.535Z,9.18
2022-09-10T23:31:40.889Z,9.38
2022-09-10T23:34:16.210Z,9.10
2022-09-10T23:36:45.956Z,8.43
2022-09-10T23:39:22.116Z,9.38
2022-09-10T23:41:53.421Z,9.15
2022-09-10T23:44:20.731Z,9.38
2022-09-10T23:46:47.914Z,9.65
2022-09-10T23:49:15.882Z,9.80
2022-09-10T23:51:42.735Z,10.38
2022-09-10T23:54:11.333Z,9.80
2022-09-10T23:56:38.968Z,8.90
2022-09-10T23:59:05.859Z,10.23
